createdAt,value
2022-08-19T00:01:07.891Z,99540.66
2022-08-19T00:06:10.858Z,99538.00
2022-08-19T00:11:15.099Z,99538.19
2022-08-19T00:16:27.523Z,99543.19
2022-08-19T00:21:29.267Z,99537.19
2022-08-19T00:26:30.972Z,99539.69
2022-08-19T00:31:32.864Z,99550.84
2022-08-19T00:36:34.527Z,99553.84
2022-08-19T00:41:36.782Z,99548.34
2022-08-19T00:46:42.045Z,99546.34
2022-08-19T00:51:47.451Z,99546.19
2022-08-19T00:56:50.624Z,99541.38
2022-08-19T01:01:55.949Z,99536.72
2022-08-19T01:06:58.806Z,99537.56
2022-08-19T01:12:01.142Z,99538.22
2022-08-19T01:17:03.821Z,99527.25
2022-08-19T01:22:30.227Z,99522.13
2022-08-19T01:27:43.753Z,99517.47
2022-08-19T01:32:45.727Z,99516.63
2022-08-19T01:37:53.372Z,99498.00
2022-08-19T01:42:55.391Z,99495.84
2022-08-19T01:48:02.069Z,99492.19
2022-08-19T01:53:08.616Z,99484.88
2022-08-19T01:58:15.640Z,99481.56
2022-08-19T02:03:18.067Z,99478.19
2022-08-19T02:08:19.804Z,99498.94
2022-08-19T02:13:24.284Z,99501.75
2022-08-19T02:18:28.239Z,99510.84
2022-08-19T02:23:29.915Z,99507.22
2022-08-19T02:28:33.436Z,99518.47
2022-08-19T02:33:35.100Z,99513.34
2022-08-19T02:38:38.090Z,99501.94
2022-08-19T02:43:44.976Z,99514.53
2022-08-19T02:49:07.750Z,99517.94
2022-08-19T02:54:11.858Z,99524.56
2022-08-19T02:59:13.535Z,99526.94
2022-08-19T03:04:17.037Z,99530.19
2022-08-19T03:09:20.790Z,99532.66
2022-08-19T03:14:22.540Z,99538.44
2022-08-19T03:19:24.702Z,99548.16
2022-08-19T03:24:26.425Z,99549.41
2022-08-19T03:29:30.723Z,99548.75
2022-08-19T03:34:35.841Z,99533.34
2022-08-19T03:39:39.337Z,99538.19
2022-08-19T03:44:43.223Z,99544.84
2022-08-19T03:49:45.523Z,99549.13
2022-08-19T03:54:47.250Z,99547.66
2022-08-19T03:59:48.907Z,99542.19
2022-08-19T04:04:54.145Z,99550.97
2022-08-19T04:09:55.935Z,99555.41
2022-08-19T04:14:57.605Z,99571.31
2022-08-19T04:19:59.337Z,99567.81
2022-08-19T04:25:02.522Z,99567.97
2022-08-19T04:30:04.907Z,99580.03
2022-08-19T04:35:17.557Z,99589.59
2022-08-19T04:40:38.990Z,99577.34
2022-08-19T04:45:43.606Z,99570.56
2022-08-19T04:50:45.636Z,99572.53
2022-08-19T04:55:47.293Z,99575.19
2022-08-19T05:00:48.986Z,99573.38
2022-08-19T05:05:50.713Z,99566.47
2022-08-19T05:10:53.455Z,99568.81
2022-08-19T05:16:00.307Z,99580.78
2022-08-19T05:21:26.490Z,99582.84
2022-08-19T05:26:28.184Z,99589.03
2022-08-19T05:31:30.563Z,99591.78
2022-08-19T05:36:40.370Z,99588.25
2022-08-19T05:41:44.342Z,99592.44
2022-08-19T05:46:48.093Z,99595.78
2022-08-19T05:51:50.424Z,99587.38
2022-08-19T05:56:53.575Z,99589.91
2022-08-19T06:01:56.669Z,99584.63
2022-08-19T06:06:59.341Z,99588.16
2022-08-19T06:12:02.256Z,99598.53
2022-08-19T06:17:07.027Z,99590.22
2022-08-19T06:22:09.439Z,99603.38
2022-08-19T06:27:14.250Z,99617.31
2022-08-19T06:32:17.835Z,99627.97
2022-08-19T06:37:19.556Z,99617.66
2022-08-19T06:42:23.863Z,99639.59
2022-08-19T06:47:28.750Z,99646.91
2022-08-19T06:52:34.088Z,99650.22
2022-08-19T06:57:36.472Z,99659.72
2022-08-19T07:02:39.016Z,99658.03
2022-08-19T07:07:44.137Z,99659.53
2022-08-19T07:12:51.184Z,99659.06
2022-08-19T07:17:53.159Z,99667.66
2022-08-19T07:22:55.156Z,99666.03
2022-08-19T07:27:57.141Z,99668.34
2022-08-19T07:32:58.926Z,99670.78
2022-08-19T07:38:03.657Z,99677.75
2022-08-19T07:43:05.338Z,99670.31
2022-08-19T07:48:07.227Z,99672.78
2022-08-19T07:53:08.934Z,99665.56
2022-08-19T07:58:15.684Z,99650.75
2022-08-19T08:03:20.537Z,99654.56
2022-08-19T08:08:43.899Z,99657.81
2022-08-19T08:13:47.131Z,99658.41
2022-08-19T08:19:07.283Z,99647.41
2022-08-19T08:24:22.030Z,99644.69
2022-08-19T08:29:34.840Z,99650.09
2022-08-19T08:34:38.102Z,99651.34
2022-08-19T08:39:39.873Z,99648.88
2022-08-19T08:44:41.599Z,99655.88
2022-08-19T08:49:47.873Z,99664.31
2022-08-19T08:54:55.985Z,99654.09
2022-08-19T09:00:01.500Z,99642.66
2022-08-19T09:05:03.265Z,99652.34
2022-08-19T09:10:12.849Z,99647.38
2022-08-19T09:15:17.263Z,99653.69
2022-08-19T09:20:26.233Z,99646.03
2022-08-19T09:25:29.635Z,99637.91
2022-08-19T09:30:34.346Z,99628.91
2022-08-19T09:35:49.964Z,99640.13
2022-08-19T09:40:55.432Z,99642.59
2022-08-19T09:45:58.012Z,99639.81
2022-08-19T09:51:17.147Z,99630.59
2022-08-19T09:56:19.749Z,99626.72
2022-08-19T10:01:25.788Z,99627.94
2022-08-19T10:06:46.709Z,99618.16
2022-08-19T10:11:54.487Z,99620.13
2022-08-19T10:16:57.623Z,99614.41
2022-08-19T10:22:04.644Z,99608.63
2022-08-19T10:27:06.910Z,99599.66
2022-08-19T10:32:11.183Z,99599.84
2022-08-19T10:37:14.431Z,99601.63
2022-08-19T10:42:20.148Z,99591.69
2022-08-19T10:47:25.927Z,99592.84
2022-08-19T10:52:38.860Z,99584.00
2022-08-19T10:58:01.403Z,99584.38
2022-08-19T11:03:03.761Z,99587.22
2022-08-19T11:08:22.089Z,99581.31
2022-08-19T11:13:26.103Z,99580.78
2022-08-19T11:18:27.787Z,99574.50
2022-08-19T11:23:29.486Z,99568.94
2022-08-19T11:28:31.610Z,99563.97
2022-08-19T11:33:33.808Z,99569.19
2022-08-19T11:38:36.688Z,99565.72
2022-08-19T11:43:38.642Z,99561.88
2022-08-19T11:48:41.021Z,99559.97
2022-08-19T11:53:43.171Z,99562.56
2022-08-19T11:58:44.821Z,99568.34
2022-08-19T12:03:49.591Z,99551.69
2022-08-19T12:08:51.281Z,99559.84
2022-08-19T12:13:54.618Z,99550.88
2022-08-19T12:18:57.339Z,99549.41
2022-08-19T12:24:01.517Z,99539.09
2022-08-19T12:29:03.897Z,99534.25
2022-08-19T12:34:05.522Z,99532.28
2022-08-19T12:39:10.681Z,99530.84
2022-08-19T12:44:13.842Z,99520.94
2022-08-19T12:49:52.172Z,99512.97
2022-08-19T12:54:38.787Z,99515.84
2022-08-19T12:59:40.463Z,99515.03
2022-08-19T13:04:45.768Z,99541.28
2022-08-19T13:09:47.483Z,99547.25
2022-08-19T13:14:51.025Z,99536.13
2022-08-19T13:19:52.829Z,99526.78
2022-08-19T13:24:54.470Z,99530.22
2022-08-19T13:30:14.986Z,99528.16
2022-08-19T13:35:17.934Z,99514.63
2022-08-19T13:40:24.870Z,99523.31
2022-08-19T13:45:28.819Z,99524.81
2022-08-19T13:50:34.493Z,99517.31
2022-08-19T13:55:38.575Z,99527.88
2022-08-19T14:00:43.677Z,99526.50
2022-08-19T14:05:47.733Z,99521.59
2022-08-19T14:10:49.706Z,99518.53
2022-08-19T14:15:52.173Z,99527.63
2022-08-19T14:20:54.912Z,99526.06
2022-08-19T14:26:05.673Z,99534.69
2022-08-19T14:31:07.388Z,99523.84
2022-08-19T14:36:09.492Z,99523.91
2022-08-19T14:41:20.355Z,99524.59
2022-08-19T14:46:26.281Z,99527.03
2022-08-19T14:51:29.952Z,99527.13
2022-08-19T14:56:31.796Z,99542.69
2022-08-19T15:01:33.678Z,99541.03
2022-08-19T15:06:35.505Z,99542.91
2022-08-19T15:11:38.076Z,99548.63
2022-08-19T15:16:42.781Z,99541.09
2022-08-19T15:21:44.673Z,99545.16
2022-08-19T15:26:46.347Z,99539.09
2022-08-19T15:31:48.103Z,99520.38
2022-08-19T15:36:50.944Z,99528.13
2022-08-19T15:41:52.922Z,99531.75
2022-08-19T15:46:54.664Z,99519.81
2022-08-19T15:51:58.075Z,99504.97
2022-08-19T15:57:18.590Z,99493.06
2022-08-19T16:02:41.854Z,99487.59
2022-08-19T16:07:43.961Z,99485.75
2022-08-19T16:12:45.714Z,99496.09
2022-08-19T16:17:56.482Z,99498.19
2022-08-19T16:22:59.877Z,99498.63
2022-08-19T16:28:07.587Z,99501.16
2022-08-19T16:33:10.886Z,99501.59
2022-08-19T16:38:15.526Z,99507.88
2022-08-19T16:43:17.164Z,99510.38
2022-08-19T16:48:29.787Z,99512.19
2022-08-19T16:53:32.077Z,99528.47
2022-08-19T16:58:34.338Z,99522.72
2022-08-19T17:03:37.653Z,99525.56
2022-08-19T17:08:39.722Z,99525.81
2022-08-19T17:13:41.410Z,99536.03
2022-08-19T17:18:45.031Z,99540.22
2022-08-19T17:23:46.741Z,99532.38
2022-08-19T17:28:50.727Z,99544.41
2022-08-19T17:33:53.009Z,99541.13
2022-08-19T17:38:59.349Z,99544.44
2022-08-19T17:44:02.462Z,99552.69
2022-08-19T17:49:04.171Z,99565.06
2022-08-19T17:54:06.741Z,99562.16
2022-08-19T17:59:13.707Z,99571.03
2022-08-19T18:04:17.368Z,99572.03
2022-08-19T18:09:19.108Z,99576.13
2022-08-19T18:14:32.873Z,99581.50
2022-08-19T18:19:42.252Z,99595.47
2022-08-19T18:24:45.939Z,99607.53
2022-08-19T18:29:48.136Z,99610.63
2022-08-19T18:34:49.949Z,99613.88
2022-08-19T18:40:10.360Z,99615.09
2022-08-19T18:45:31.116Z,99623.59
2022-08-19T18:50:32.973Z,99628.13
2022-08-19T18:55:34.639Z,99636.47
2022-08-19T19:00:36.898Z,99643.75
2022-08-19T19:05:40.015Z,99651.97
2022-08-19T19:10:42.333Z,99657.28
2022-08-19T19:15:44.028Z,99665.47
2022-08-19T19:20:45.689Z,99673.47
2022-08-19T19:25:51.069Z,99684.16
2022-08-19T19:30:54.810Z,99693.59
2022-08-19T19:35:56.509Z,99694.09
2022-08-19T19:40:58.210Z,99696.97
2022-08-19T19:45:59.836Z,99700.81
2022-08-19T19:51:03.766Z,99703.50
2022-08-19T19:56:05.662Z,99709.16
2022-08-19T20:01:12.501Z,99720.31
2022-08-19T20:06:19.793Z,99720.63
2022-08-19T20:11:44.412Z,99726.31
2022-08-19T20:16:48.280Z,99735.81
2022-08-19T20:21:51.447Z,99734.16
2022-08-19T20:26:53.896Z,99727.59
2022-08-19T20:31:57.655Z,99732.31
2022-08-19T20:37:01.062Z,99737.84
2022-08-19T20:42:03.983Z,99732.97
2022-08-19T20:47:05.945Z,99742.25
2022-08-19T20:52:07.613Z,99735.81
2022-08-19T20:57:09.570Z,99747.34
2022-08-19T21:02:11.478Z,99746.06
2022-08-19T21:07:13.186Z,99745.97
2022-08-19T21:12:15.422Z,99742.25
2022-08-19T21:17:17.225Z,99752.50
2022-08-19T21:22:18.935Z,99750.47
2022-08-19T21:27:20.601Z,99755.72
2022-08-19T21:32:23.691Z,99755.47
2022-08-19T21:37:26.242Z,99755.75
2022-08-19T21:42:28.069Z,99762.53
2022-08-19T21:47:29.723Z,99762.56
2022-08-19T21:52:31.802Z,99763.09
2022-08-19T21:57:33.771Z,99768.16
2022-08-19T22:02:37.550Z,99771.00
2022-08-19T22:07:39.659Z,99764.81
2022-08-19T22:12:51.314Z,99763.53
2022-08-19T22:17:54.477Z,99761.69
2022-08-19T22:23:00.412Z,99760.09
2022-08-19T22:28:05.757Z,99759.28
2022-08-19T22:33:11.671Z,99759.94
2022-08-19T22:38:14.693Z,99764.31
2022-08-19T22:43:19.867Z,99764.19
2022-08-19T22:48:25.532Z,99770.44
2022-08-19T22:53:27.294Z,99771.53
2022-08-19T22:58:29.814Z,99764.91
2022-08-19T23:03:31.538Z,99761.50
2022-08-19T23:08:33.378Z,99763.97
2022-08-19T23:13:35.136Z,99758.03
2022-08-19T23:18:36.839Z,99760.19
2022-08-19T23:23:39.547Z,99765.19
2022-08-19T23:28:59.842Z,99758.75
2022-08-19T23:34:02.204Z,99757.06
2022-08-19T23:39:04.154Z,99761.25
2022-08-19T23:44:06.666Z,99762.81
2022-08-19T23:49:16.435Z,99771.00
2022-08-19T23:54:18.135Z,99768.28
2022-08-19T23:59:20.039Z,99765.00
